PILOTS ONLINE: 396    ATC ONLINE: 59

KRND

Randolph Air Force Base

Location

City Universal City
Country  United States
Latitude 29° 31' 46" N
Longitude 98° 16' 44" W
Elevation 761 ft
Type Large Airport

Map

Weather

METAR
2014/09/02 20:58
KRND 022058Z AUTO 14011G17KT 10SM FEW070 SCT085 35/20 A2990 RMK AO2 DZE2001 SLP115 P0000 60000 T03490203 57022
TAF
2014/09/02 20:39
TAF KRND 0220/0323 16010G15KT 9999 SCT025 SCT040 QNH2986INS 
      TEMPO 0220/0223 18015G25KT -TSRA BKN040CB 
      BECMG 0304/0305 14006KT 9999 BKN015 QNH2995INS 
      TEMPO 0307/0312 SCT015 
      BECMG 0311/0312 14009KT 9999 SCT025 BKN045 QNH2992INS 
      TEMPO 0318/0321 14012G18KT 8000 -TSRA BKN030CB OVC120 TX37/0221Z TN24/0312Z 
      AMD 022026 LAST NO 
      AMDS AFT 0223 NEXT 0309

Runways

14L/32R 8351 ft / 200 ft
14R/32L 8353 ft / 200 ft

Outbound flights

Callsign Flying to Pilot ATD/STD ETA Aircraft

Inbound flights

Callsign Flying from Pilot ATD ETA Aircraft